sensor_id;sensor_type;location;lat;lon;timestamp;temperature;humidity
22787;DHT22;63134;52.020;4.714;2023-05-01T00:01:32;11.40;78.30
22787;DHT22;63134;52.020;4.714;2023-05-01T00:04:17;11.40;78.40
22787;DHT22;63134;52.020;4.714;2023-05-01T00:07:03;11.30;78.60
22787;DHT22;63134;52.020;4.714;2023-05-01T00:09:52;11.30;78.70
22787;DHT22;63134;52.020;4.714;2023-05-01T00:12:37;11.30;78.90
22787;DHT22;63134;52.020;4.714;2023-05-01T00:15:22;11.30;79.30
22787;DHT22;63134;52.020;4.714;2023-05-01T00:18:08;11.30;79.30
22787;DHT22;63134;52.020;4.714;2023-05-01T00:20:53;11.30;79.40
22787;DHT22;63134;52.020;4.714;2023-05-01T00:23:40;11.30;79.50
22787;DHT22;63134;52.020;4.714;2023-05-01T00:26:26;11.30;79.70
22787;DHT22;63134;52.020;4.714;2023-05-01T00:29:16;11.40;79.70
22787;DHT22;63134;52.020;4.714;2023-05-01T00:32:01;11.40;79.80
22787;DHT22;63134;52.020;4.714;2023-05-01T00:34:47;11.40;80.00
22787;DHT22;63134;52.020;4.714;2023-05-01T00:37:32;11.40;80.10
22787;DHT22;63134;52.020;4.714;2023-05-01T00:40:18;11.40;80.20
22787;DHT22;63134;52.020;4.714;2023-05-01T00:43:03;11.50;80.40
22787;DHT22;63134;52.020;4.714;2023-05-01T00:45:49;11.50;80.60
22787;DHT22;63134;52.020;4.714;2023-05-01T00:48:35;11.50;80.60
22787;DHT22;63134;52.020;4.714;2023-05-01T00:51:20;11.50;80.60
22787;DHT22;63134;52.020;4.714;2023-05-01T00:54:06;11.50;80.70
22787;DHT22;63134;52.020;4.714;2023-05-01T00:56:52;11.60;80.90
22787;DHT22;63134;52.020;4.714;2023-05-01T00:59:39;11.60;81.10
22787;DHT22;63134;52.020;4.714;2023-05-01T01:02:25;11.70;81.20
22787;DHT22;63134;52.020;4.714;2023-05-01T01:05:11;11.70;81.10
22787;DHT22;63134;52.020;4.714;2023-05-01T01:08:19;11.70;81.10
22787;DHT22;63134;52.020;4.714;2023-05-01T01:14:16;11.80;81.10
22787;DHT22;63134;52.020;4.714;2023-05-01T01:17:23;11.80;81.10
22787;DHT22;63134;52.020;4.714;2023-05-01T01:33:21;11.90;81.50
22787;DHT22;63134;52.020;4.714;2023-05-01T01:36:19;11.90;81.30
22787;DHT22;63134;52.020;4.714;2023-05-01T01:39:21;11.90;81.10
22787;DHT22;63134;52.020;4.714;2023-05-01T01:42:23;11.90;81.00
22787;DHT22;63134;52.020;4.714;2023-05-01T01:45:24;12.00;80.90
22787;DHT22;63134;52.020;4.714;2023-05-01T01:48:17;12.00;80.50
22787;DHT22;63134;52.020;4.714;2023-05-01T01:51:09;12.10;80.50
22787;DHT22;63134;52.020;4.714;2023-05-01T01:53:59;12.10;80.10
22787;DHT22;63134;52.020;4.714;2023-05-01T01:56:47;12.10;79.90
22787;DHT22;63134;52.020;4.714;2023-05-01T01:59:34;12.10;79.70
22787;DHT22;63134;52.020;4.714;2023-05-01T02:02:21;12.20;79.60
22787;DHT22;63134;52.020;4.714;2023-05-01T02:05:12;12.20;79.30
22787;DHT22;63134;52.020;4.714;2023-05-01T02:07:58;12.30;79.10
22787;DHT22;63134;52.020;4.714;2023-05-01T02:10:47;12.30;78.80
22787;DHT22;63134;52.020;4.714;2023-05-01T02:13:40;12.30;78.50
22787;DHT22;63134;52.020;4.714;2023-05-01T02:16:26;12.30;78.30
22787;DHT22;63134;52.020;4.714;2023-05-01T02:19:15;12.30;78.20
22787;DHT22;63134;52.020;4.714;2023-05-01T02:22:03;12.30;78.00
22787;DHT22;63134;52.020;4.714;2023-05-01T02:24:52;12.30;77.70
22787;DHT22;63134;52.020;4.714;2023-05-01T02:27:49;12.30;77.50
22787;DHT22;63134;52.020;4.714;2023-05-01T02:30:39;12.30;77.30
22787;DHT22;63134;52.020;4.714;2023-05-01T02:33:25;12.20;77.00
22787;DHT22;63134;52.020;4.714;2023-05-01T02:36:11;12.20;77.00
22787;DHT22;63134;52.020;4.714;2023-05-01T02:38:58;12.20;76.80
22787;DHT22;63134;52.020;4.714;2023-05-01T02:41:44;12.20;76.80
22787;DHT22;63134;52.020;4.714;2023-05-01T02:44:52;12.10;76.60
22787;DHT22;63134;52.020;4.714;2023-05-01T02:47:40;12.00;76.50
22787;DHT22;63134;52.020;4.714;2023-05-01T02:50:27;12.00;76.60
22787;DHT22;63134;52.020;4.714;2023-05-01T02:53:14;12.00;76.60
22787;DHT22;63134;52.020;4.714;2023-05-01T02:56:10;12.00;76.60
22787;DHT22;63134;52.020;4.714;2023-05-01T02:58:56;12.00;76.60
22787;DHT22;63134;52.020;4.714;2023-05-01T03:01:42;11.90;76.50
22787;DHT22;63134;52.020;4.714;2023-05-01T03:04:27;11.90;76.50
22787;DHT22;63134;52.020;4.714;2023-05-01T03:07:13;11.90;76.60
22787;DHT22;63134;52.020;4.714;2023-05-01T03:10:03;11.90;76.70
22787;DHT22;63134;52.020;4.714;2023-05-01T03:12:49;11.80;76.70
22787;DHT22;63134;52.020;4.714;2023-05-01T03:15:35;11.90;76.90
22787;DHT22;63134;52.020;4.714;2023-05-01T03:18:22;11.80;76.80
22787;DHT22;63134;52.020;4.714;2023-05-01T03:21:07;11.80;76.90
22787;DHT22;63134;52.020;4.714;2023-05-01T03:23:54;11.80;77.10
22787;DHT22;63134;52.020;4.714;2023-05-01T03:26:44;11.90;77.30
22787;DHT22;63134;52.020;4.714;2023-05-01T03:29:31;11.90;77.20
22787;DHT22;63134;52.020;4.714;2023-05-01T03:32:18;11.90;77.20
22787;DHT22;63134;52.020;4.714;2023-05-01T03:35:05;11.90;77.00
22787;DHT22;63134;52.020;4.714;2023-05-01T03:37:52;11.90;77.10
22787;DHT22;63134;52.020;4.714;2023-05-01T03:40:58;11.90;77.10
22787;DHT22;63134;52.020;4.714;2023-05-01T03:43:47;11.90;77.00
22787;DHT22;63134;52.020;4.714;2023-05-01T03:46:44;11.90;77.00
22787;DHT22;63134;52.020;4.714;2023-05-01T03:49:36;11.90;77.00
22787;DHT22;63134;52.020;4.714;2023-05-01T03:52:23;11.90;77.00
22787;DHT22;63134;52.020;4.714;2023-05-01T03:55:09;11.90;77.00
22787;DHT22;63134;52.020;4.714;2023-05-01T03:57:58;11.90;77.00
22787;DHT22;63134;52.020;4.714;2023-05-01T04:00:44;11.90;77.00
22787;DHT22;63134;52.020;4.714;2023-05-01T04:03:33;11.90;76.90
22787;DHT22;63134;52.020;4.714;2023-05-01T04:06:22;11.90;77.00
22787;DHT22;63134;52.020;4.714;2023-05-01T04:09:08;11.90;77.00
22787;DHT22;63134;52.020;4.714;2023-05-01T04:11:54;11.90;77.00
22787;DHT22;63134;52.020;4.714;2023-05-01T04:14:39;11.90;77.00
22787;DHT22;63134;52.020;4.714;2023-05-01T04:17:25;11.90;76.90
22787;DHT22;63134;52.020;4.714;2023-05-01T04:20:10;11.90;77.00
22787;DHT22;63134;52.020;4.714;2023-05-01T04:22:56;12.00;77.10
22787;DHT22;63134;52.020;4.714;2023-05-01T04:25:42;12.00;77.10
22787;DHT22;63134;52.020;4.714;2023-05-01T04:28:35;12.00;77.10
22787;DHT22;63134;52.020;4.714;2023-05-01T04:31:22;12.00;77.10
22787;DHT22;63134;52.020;4.714;2023-05-01T04:34:08;12.00;77.10
22787;DHT22;63134;52.020;4.714;2023-05-01T04:36:57;12.00;77.10
22787;DHT22;63134;52.020;4.714;2023-05-01T04:39:42;12.00;77.20
22787;DHT22;63134;52.020;4.714;2023-05-01T04:42:32;12.10;77.40
22787;DHT22;63134;52.020;4.714;2023-05-01T04:45:18;12.10;77.30
22787;DHT22;63134;52.020;4.714;2023-05-01T04:48:03;12.10;77.30
22787;DHT22;63134;52.020;4.714;2023-05-01T04:50:49;12.10;77.20
22787;DHT22;63134;52.020;4.714;2023-05-01T04:53:35;12.10;77.20
22787;DHT22;63134;52.020;4.714;2023-05-01T04:56:24;12.20;77.30
22787;DHT22;63134;52.020;4.714;2023-05-01T04:59:13;12.20;77.40
22787;DHT22;63134;52.020;4.714;2023-05-01T05:01:59;12.20;77.30
22787;DHT22;63134;52.020;4.714;2023-05-01T05:04:44;12.20;77.40
22787;DHT22;63134;52.020;4.714;2023-05-01T05:07:33;12.20;77.40
22787;DHT22;63134;52.020;4.714;2023-05-01T05:10:41;12.30;77.30
22787;DHT22;63134;52.020;4.714;2023-05-01T05:13:40;12.30;77.20
22787;DHT22;63134;52.020;4.714;2023-05-01T05:16:29;12.30;77.10
22787;DHT22;63134;52.020;4.714;2023-05-01T05:19:15;12.30;76.90
22787;DHT22;63134;52.020;4.714;2023-05-01T05:22:02;12.40;76.90
22787;DHT22;63134;52.020;4.714;2023-05-01T05:24:53;12.40;76.80
22787;DHT22;63134;52.020;4.714;2023-05-01T05:27:40;12.40;76.70
22787;DHT22;63134;52.020;4.714;2023-05-01T05:30:27;12.40;76.50
22787;DHT22;63134;52.020;4.714;2023-05-01T05:33:14;12.50;76.40
22787;DHT22;63134;52.020;4.714;2023-05-01T05:36:02;12.50;76.30
22787;DHT22;63134;52.020;4.714;2023-05-01T05:38:55;12.50;76.20
22787;DHT22;63134;52.020;4.714;2023-05-01T05:41:40;12.50;76.30
22787;DHT22;63134;52.020;4.714;2023-05-01T05:44:26;12.60;76.30
22787;DHT22;63134;52.020;4.714;2023-05-01T05:47:12;12.60;76.10
22787;DHT22;63134;52.020;4.714;2023-05-01T05:49:57;12.70;76.20
22787;DHT22;63134;52.020;4.714;2023-05-01T05:52:44;12.70;76.20
22787;DHT22;63134;52.020;4.714;2023-05-01T05:55:31;12.70;76.30
22787;DHT22;63134;52.020;4.714;2023-05-01T05:58:19;12.80;76.40
22787;DHT22;63134;52.020;4.714;2023-05-01T06:01:06;12.90;76.40
22787;DHT22;63134;52.020;4.714;2023-05-01T06:03:56;12.90;77.10
22787;DHT22;63134;52.020;4.714;2023-05-01T06:06:43;13.00;76.30
22787;DHT22;63134;52.020;4.714;2023-05-01T06:09:29;13.10;76.10
22787;DHT22;63134;52.020;4.714;2023-05-01T06:12:16;13.10;75.90
22787;DHT22;63134;52.020;4.714;2023-05-01T06:15:03;13.20;75.80
22787;DHT22;63134;52.020;4.714;2023-05-01T06:17:49;13.30;75.70
22787;DHT22;63134;52.020;4.714;2023-05-01T06:20:35;13.40;75.30
22787;DHT22;63134;52.020;4.714;2023-05-01T06:23:22;13.40;74.80
22787;DHT22;63134;52.020;4.714;2023-05-01T06:26:27;13.50;74.60
22787;DHT22;63134;52.020;4.714;2023-05-01T06:29:13;13.60;74.10
22787;DHT22;63134;52.020;4.714;2023-05-01T06:32:00;13.70;74.10
22787;DHT22;63134;52.020;4.714;2023-05-01T06:34:45;13.80;73.60
22787;DHT22;63134;52.020;4.714;2023-05-01T06:37:35;13.90;73.30
22787;DHT22;63134;52.020;4.714;2023-05-01T06:40:24;14.00;72.90
22787;DHT22;63134;52.020;4.714;2023-05-01T06:43:10;14.10;72.50
22787;DHT22;63134;52.020;4.714;2023-05-01T06:45:56;14.10;72.30
22787;DHT22;63134;52.020;4.714;2023-05-01T06:48:42;14.20;71.80
22787;DHT22;63134;52.020;4.714;2023-05-01T06:51:30;14.30;71.50
22787;DHT22;63134;52.020;4.714;2023-05-01T06:54:16;14.40;71.40
22787;DHT22;63134;52.020;4.714;2023-05-01T06:57:02;14.50;71.40
22787;DHT22;63134;52.020;4.714;2023-05-01T06:59:47;14.60;70.90
22787;DHT22;63134;52.020;4.714;2023-05-01T07:02:34;14.70;70.20
22787;DHT22;63134;52.020;4.714;2023-05-01T07:05:22;14.80;69.90
22787;DHT22;63134;52.020;4.714;2023-05-01T07:08:08;14.90;70.30
22787;DHT22;63134;52.020;4.714;2023-05-01T07:10:54;15.00;69.50
22787;DHT22;63134;52.020;4.714;2023-05-01T07:13:39;15.20;69.00
22787;DHT22;63134;52.020;4.714;2023-05-01T07:16:25;15.30;68.40
22787;DHT22;63134;52.020;4.714;2023-05-01T07:19:10;15.50;67.80
22787;DHT22;63134;52.020;4.714;2023-05-01T07:21:57;15.60;67.00
22787;DHT22;63134;52.020;4.714;2023-05-01T07:24:43;15.70;66.40
22787;DHT22;63134;52.020;4.714;2023-05-01T07:27:28;15.90;66.10
22787;DHT22;63134;52.020;4.714;2023-05-01T07:30:14;16.00;65.60
22787;DHT22;63134;52.020;4.714;2023-05-01T07:32:59;16.20;64.80
22787;DHT22;63134;52.020;4.714;2023-05-01T07:35:45;16.20;64.00
22787;DHT22;63134;52.020;4.714;2023-05-01T07:38:33;16.20;63.70
22787;DHT22;63134;52.020;4.714;2023-05-01T07:41:19;16.40;63.50
22787;DHT22;63134;52.020;4.714;2023-05-01T07:44:06;16.50;62.70
22787;DHT22;63134;52.020;4.714;2023-05-01T07:46:52;16.40;61.50
22787;DHT22;63134;52.020;4.714;2023-05-01T07:49:37;16.40;61.40
22787;DHT22;63134;52.020;4.714;2023-05-01T07:52:23;16.50;61.00
22787;DHT22;63134;52.020;4.714;2023-05-01T07:55:09;16.70;60.70
22787;DHT22;63134;52.020;4.714;2023-05-01T07:57:55;16.80;60.10
22787;DHT22;63134;52.020;4.714;2023-05-01T08:00:40;16.80;59.30
22787;DHT22;63134;52.020;4.714;2023-05-01T08:03:29;16.80;59.50
22787;DHT22;63134;52.020;4.714;2023-05-01T08:06:15;17.10;59.30
22787;DHT22;63134;52.020;4.714;2023-05-01T08:09:01;17.20;59.10
22787;DHT22;63134;52.020;4.714;2023-05-01T08:11:46;17.50;58.80
22787;DHT22;63134;52.020;4.714;2023-05-01T08:14:52;17.80;58.20
22787;DHT22;63134;52.020;4.714;2023-05-01T08:17:37;17.90;57.40
22787;DHT22;63134;52.020;4.714;2023-05-01T08:20:23;18.10;57.40
22787;DHT22;63134;52.020;4.714;2023-05-01T08:23:09;18.10;57.00
22787;DHT22;63134;52.020;4.714;2023-05-01T08:25:55;18.20;56.80
22787;DHT22;63134;52.020;4.714;2023-05-01T08:28:44;18.20;56.20
22787;DHT22;63134;52.020;4.714;2023-05-01T08:31:29;18.20;56.40
22787;DHT22;63134;52.020;4.714;2023-05-01T08:34:15;18.20;56.10
22787;DHT22;63134;52.020;4.714;2023-05-01T08:37:01;18.20;56.00
22787;DHT22;63134;52.020;4.714;2023-05-01T08:39:47;18.20;55.80
22787;DHT22;63134;52.020;4.714;2023-05-01T08:42:36;18.30;55.60
22787;DHT22;63134;52.020;4.714;2023-05-01T08:45:24;18.30;55.20
22787;DHT22;63134;52.020;4.714;2023-05-01T08:48:15;18.30;55.20
22787;DHT22;63134;52.020;4.714;2023-05-01T08:51:04;18.40;55.10
22787;DHT22;63134;52.020;4.714;2023-05-01T08:53:51;18.40;55.00
22787;DHT22;63134;52.020;4.714;2023-05-01T08:56:38;18.50;55.00
22787;DHT22;63134;52.020;4.714;2023-05-01T08:59:25;18.40;54.90
22787;DHT22;63134;52.020;4.714;2023-05-01T09:02:14;18.40;55.10
22787;DHT22;63134;52.020;4.714;2023-05-01T09:05:00;18.40;55.10
22787;DHT22;63134;52.020;4.714;2023-05-01T09:07:46;18.30;55.20
22787;DHT22;63134;52.020;4.714;2023-05-01T09:10:32;18.40;55.40
22787;DHT22;63134;52.020;4.714;2023-05-01T09:13:24;18.30;55.40
22787;DHT22;63134;52.020;4.714;2023-05-01T09:16:09;18.10;55.40
22787;DHT22;63134;52.020;4.714;2023-05-01T09:18:55;17.90;56.70
22787;DHT22;63134;52.020;4.714;2023-05-01T09:21:41;17.80;56.20
22787;DHT22;63134;52.020;4.714;2023-05-01T09:24:27;17.70;56.70
22787;DHT22;63134;52.020;4.714;2023-05-01T09:27:13;17.70;57.40
22787;DHT22;63134;52.020;4.714;2023-05-01T09:29:59;17.80;57.00
22787;DHT22;63134;52.020;4.714;2023-05-01T09:32:44;17.80;57.10
22787;DHT22;63134;52.020;4.714;2023-05-01T09:35:30;18.00;57.20
22787;DHT22;63134;52.020;4.714;2023-05-01T09:38:21;18.30;57.00
22787;DHT22;63134;52.020;4.714;2023-05-01T09:41:07;18.50;56.10
22787;DHT22;63134;52.020;4.714;2023-05-01T09:43:55;18.60;55.50
22787;DHT22;63134;52.020;4.714;2023-05-01T09:46:41;18.80;55.50
22787;DHT22;63134;52.020;4.714;2023-05-01T09:49:43;19.00;55.00
22787;DHT22;63134;52.020;4.714;2023-05-01T09:52:37;18.90;54.40
22787;DHT22;63134;52.020;4.714;2023-05-01T09:55:22;18.90;54.40
22787;DHT22;63134;52.020;4.714;2023-05-01T09:58:25;18.90;54.40
22787;DHT22;63134;52.020;4.714;2023-05-01T10:01:11;18.90;54.40
22787;DHT22;63134;52.020;4.714;2023-05-01T10:03:57;18.80;54.30
22787;DHT22;63134;52.020;4.714;2023-05-01T10:06:43;18.80;54.50
22787;DHT22;63134;52.020;4.714;2023-05-01T10:09:28;18.60;54.80
22787;DHT22;63134;52.020;4.714;2023-05-01T10:12:25;18.50;55.40
22787;DHT22;63134;52.020;4.714;2023-05-01T10:15:11;18.30;55.90
22787;DHT22;63134;52.020;4.714;2023-05-01T10:18:10;18.20;56.40
22787;DHT22;63134;52.020;4.714;2023-05-01T10:20:56;18.00;57.00
22787;DHT22;63134;52.020;4.714;2023-05-01T10:23:42;17.70;57.50
22787;DHT22;63134;52.020;4.714;2023-05-01T10:26:27;17.50;58.70
22787;DHT22;63134;52.020;4.714;2023-05-01T10:29:13;17.20;59.70
22787;DHT22;63134;52.020;4.714;2023-05-01T10:32:00;17.10;60.80
22787;DHT22;63134;52.020;4.714;2023-05-01T10:34:51;16.80;61.90
22787;DHT22;63134;52.020;4.714;2023-05-01T10:40:46;16.50;64.20
22787;DHT22;63134;52.020;4.714;2023-05-01T10:43:34;16.40;65.10
22787;DHT22;63134;52.020;4.714;2023-05-01T10:49:06;16.20;66.60
22787;DHT22;63134;52.020;4.714;2023-05-01T10:54:44;16.00;68.30
22787;DHT22;63134;52.020;4.714;2023-05-01T10:57:43;15.80;69.10
22787;DHT22;63134;52.020;4.714;2023-05-01T11:00:29;15.70;69.90
22787;DHT22;63134;52.020;4.714;2023-05-01T11:06:07;15.40;72.00
22787;DHT22;63134;52.020;4.714;2023-05-01T11:08:54;15.30;72.90
22787;DHT22;63134;52.020;4.714;2023-05-01T11:17:49;15.00;75.20
22787;DHT22;63134;52.020;4.714;2023-05-01T11:23:25;15.00;76.00
22787;DHT22;63134;52.020;4.714;2023-05-01T11:26:12;15.10;76.50
22787;DHT22;63134;52.020;4.714;2023-05-01T11:28:59;15.00;76.50
22787;DHT22;63134;52.020;4.714;2023-05-01T11:31:47;15.10;76.80
22787;DHT22;63134;52.020;4.714;2023-05-01T11:34:36;15.20;76.90
22787;DHT22;63134;52.020;4.714;2023-05-01T11:37:41;15.30;76.60
22787;DHT22;63134;52.020;4.714;2023-05-01T11:40:37;15.30;76.90
22787;DHT22;63134;52.020;4.714;2023-05-01T11:43:23;15.40;77.00
22787;DHT22;63134;52.020;4.714;2023-05-01T11:46:11;15.50;77.30
22787;DHT22;63134;52.020;4.714;2023-05-01T11:49:00;15.60;77.40
22787;DHT22;63134;52.020;4.714;2023-05-01T11:51:55;15.90;77.90
22787;DHT22;63134;52.020;4.714;2023-05-01T11:54:47;16.10;77.60
22787;DHT22;63134;52.020;4.714;2023-05-01T11:57:44;16.30;77.30
22787;DHT22;63134;52.020;4.714;2023-05-01T12:00:31;16.70;77.50
22787;DHT22;63134;52.020;4.714;2023-05-01T12:03:18;17.10;77.30
22787;DHT22;63134;52.020;4.714;2023-05-01T12:06:05;17.40;75.50
22787;DHT22;63134;52.020;4.714;2023-05-01T12:08:51;17.80;74.70
22787;DHT22;63134;52.020;4.714;2023-05-01T12:11:37;18.20;73.80
22787;DHT22;63134;52.020;4.714;2023-05-01T12:14:44;18.50;70.80
22787;DHT22;63134;52.020;4.714;2023-05-01T12:17:31;18.90;68.70
22787;DHT22;63134;52.020;4.714;2023-05-01T12:20:40;19.30;67.50
22787;DHT22;63134;52.020;4.714;2023-05-01T12:23:35;20.00;66.50
22787;DHT22;63134;52.020;4.714;2023-05-01T12:26:24;21.00;63.70
22787;DHT22;63134;52.020;4.714;2023-05-01T12:29:11;22.40;61.80
22787;DHT22;63134;52.020;4.714;2023-05-01T12:31:57;23.50;58.80
22787;DHT22;63134;52.020;4.714;2023-05-01T12:34:43;24.40;55.50
22787;DHT22;63134;52.020;4.714;2023-05-01T12:37:33;24.70;52.80
22787;DHT22;63134;52.020;4.714;2023-05-01T12:40:19;24.90;51.40
22787;DHT22;63134;52.020;4.714;2023-05-01T12:43:07;25.20;49.90
22787;DHT22;63134;52.020;4.714;2023-05-01T12:45:52;25.70;49.00
22787;DHT22;63134;52.020;4.714;2023-05-01T12:48:39;26.60;47.20
22787;DHT22;63134;52.020;4.714;2023-05-01T12:51:25;27.80;45.50
22787;DHT22;63134;52.020;4.714;2023-05-01T12:54:11;29.30;43.40
22787;DHT22;63134;52.020;4.714;2023-05-01T12:57:12;30.40;41.20
22787;DHT22;63134;52.020;4.714;2023-05-01T13:00:01;30.40;37.80
22787;DHT22;63134;52.020;4.714;2023-05-01T13:02:47;29.90;37.80
22787;DHT22;63134;52.020;4.714;2023-05-01T13:05:33;29.00;37.70
22787;DHT22;63134;52.020;4.714;2023-05-01T13:08:27;28.10;38.30
22787;DHT22;63134;52.020;4.714;2023-05-01T13:11:16;27.50;39.60
22787;DHT22;63134;52.020;4.714;2023-05-01T13:14:08;27.20;40.30
22787;DHT22;63134;52.020;4.714;2023-05-01T13:16:57;27.30;40.60
22787;DHT22;63134;52.020;4.714;2023-05-01T13:19:43;27.90;39.80
22787;DHT22;63134;52.020;4.714;2023-05-01T13:22:35;29.10;38.30
22787;DHT22;63134;52.020;4.714;2023-05-01T13:25:20;29.80;36.50
22787;DHT22;63134;52.020;4.714;2023-05-01T13:28:09;30.50;35.10
22787;DHT22;63134;52.020;4.714;2023-05-01T13:30:57;32.10;33.60
22787;DHT22;63134;52.020;4.714;2023-05-01T13:33:51;33.30;31.90
22787;DHT22;63134;52.020;4.714;2023-05-01T13:36:39;33.80;29.90
22787;DHT22;63134;52.020;4.714;2023-05-01T13:39:25;33.00;29.80
22787;DHT22;63134;52.020;4.714;2023-05-01T13:42:11;31.80;31.00
22787;DHT22;63134;52.020;4.714;2023-05-01T13:44:57;30.90;30.90
22787;DHT22;63134;52.020;4.714;2023-05-01T13:47:43;29.90;32.00
22787;DHT22;63134;52.020;4.714;2023-05-01T13:50:28;29.10;34.00
22787;DHT22;63134;52.020;4.714;2023-05-01T13:53:14;28.20;34.70
22787;DHT22;63134;52.020;4.714;2023-05-01T13:56:04;27.50;35.80
22787;DHT22;63134;52.020;4.714;2023-05-01T13:58:49;26.80;36.90
22787;DHT22;63134;52.020;4.714;2023-05-01T14:01:39;26.20;38.00
22787;DHT22;63134;52.020;4.714;2023-05-01T14:04:34;25.90;39.00
22787;DHT22;63134;52.020;4.714;2023-05-01T14:07:23;25.70;39.40
22787;DHT22;63134;52.020;4.714;2023-05-01T14:10:09;25.50;39.60
22787;DHT22;63134;52.020;4.714;2023-05-01T14:12:58;25.40;40.10
22787;DHT22;63134;52.020;4.714;2023-05-01T14:15:43;25.30;40.70
22787;DHT22;63134;52.020;4.714;2023-05-01T14:18:34;25.20;40.90
22787;DHT22;63134;52.020;4.714;2023-05-01T14:21:22;25.00;41.90
22787;DHT22;63134;52.020;4.714;2023-05-01T14:24:08;25.50;41.60
22787;DHT22;63134;52.020;4.714;2023-05-01T14:26:53;26.40;40.80
22787;DHT22;63134;52.020;4.714;2023-05-01T14:29:43;27.50;39.70
22787;DHT22;63134;52.020;4.714;2023-05-01T14:32:28;29.20;37.50
22787;DHT22;63134;52.020;4.714;2023-05-01T14:35:14;31.30;34.40
22787;DHT22;63134;52.020;4.714;2023-05-01T14:38:12;32.70;31.80
22787;DHT22;63134;52.020;4.714;2023-05-01T14:40:58;32.60;29.80
22787;DHT22;63134;52.020;4.714;2023-05-01T14:43:44;32.30;30.20
22787;DHT22;63134;52.020;4.714;2023-05-01T14:46:33;32.80;29.60
22787;DHT22;63134;52.020;4.714;2023-05-01T14:49:21;33.90;28.60
22787;DHT22;63134;52.020;4.714;2023-05-01T14:52:08;33.80;28.00
22787;DHT22;63134;52.020;4.714;2023-05-01T14:54:55;33.00;28.50
22787;DHT22;63134;52.020;4.714;2023-05-01T14:57:40;31.70;29.60
22787;DHT22;63134;52.020;4.714;2023-05-01T15:00:29;31.00;30.00
22787;DHT22;63134;52.020;4.714;2023-05-01T15:03:15;32.60;29.30
22787;DHT22;63134;52.020;4.714;2023-05-01T15:06:01;34.40;27.50
22787;DHT22;63134;52.020;4.714;2023-05-01T15:08:48;35.30;25.90
22787;DHT22;63134;52.020;4.714;2023-05-01T15:11:33;35.60;25.80
22787;DHT22;63134;52.020;4.714;2023-05-01T15:14:19;35.30;25.20
22787;DHT22;63134;52.020;4.714;2023-05-01T15:17:04;35.70;24.90
22787;DHT22;63134;52.020;4.714;2023-05-01T15:19:51;34.30;25.40
22787;DHT22;63134;52.020;4.714;2023-05-01T15:22:36;33.40;27.00
22787;DHT22;63134;52.020;4.714;2023-05-01T15:25:26;34.00;27.10
22787;DHT22;63134;52.020;4.714;2023-05-01T15:28:12;34.90;26.80
22787;DHT22;63134;52.020;4.714;2023-05-01T15:30:58;35.60;26.30
22787;DHT22;63134;52.020;4.714;2023-05-01T15:33:44;36.20;26.00
22787;DHT22;63134;52.020;4.714;2023-05-01T15:36:30;36.70;25.20
22787;DHT22;63134;52.020;4.714;2023-05-01T15:39:18;37.00;24.90
22787;DHT22;63134;52.020;4.714;2023-05-01T15:42:04;37.40;24.60
22787;DHT22;63134;52.020;4.714;2023-05-01T15:44:55;37.40;24.40
22787;DHT22;63134;52.020;4.714;2023-05-01T15:47:44;37.70;24.40
22787;DHT22;63134;52.020;4.714;2023-05-01T15:50:29;37.70;24.00
22787;DHT22;63134;52.020;4.714;2023-05-01T15:53:15;37.70;24.00
22787;DHT22;63134;52.020;4.714;2023-05-01T15:56:01;37.90;23.90
22787;DHT22;63134;52.020;4.714;2023-05-01T15:58:47;37.80;23.90
22787;DHT22;63134;52.020;4.714;2023-05-01T16:01:33;37.90;23.80
22787;DHT22;63134;52.020;4.714;2023-05-01T16:04:23;37.80;24.00
22787;DHT22;63134;52.020;4.714;2023-05-01T16:07:08;38.00;24.00
22787;DHT22;63134;52.020;4.714;2023-05-01T16:09:55;37.80;24.00
22787;DHT22;63134;52.020;4.714;2023-05-01T16:12:42;37.70;24.40
22787;DHT22;63134;52.020;4.714;2023-05-01T16:15:29;37.90;24.30
22787;DHT22;63134;52.020;4.714;2023-05-01T16:18:18;38.20;24.20
22787;DHT22;63134;52.020;4.714;2023-05-01T16:21:05;38.20;24.10
22787;DHT22;63134;52.020;4.714;2023-05-01T16:23:53;37.90;23.80
22787;DHT22;63134;52.020;4.714;2023-05-01T16:26:39;37.80;24.00
22787;DHT22;63134;52.020;4.714;2023-05-01T16:29:26;37.80;24.10
22787;DHT22;63134;52.020;4.714;2023-05-01T16:32:13;37.80;24.00
22787;DHT22;63134;52.020;4.714;2023-05-01T16:35:01;37.50;23.80
22787;DHT22;63134;52.020;4.714;2023-05-01T16:37:47;37.40;23.90
22787;DHT22;63134;52.020;4.714;2023-05-01T16:40:35;37.30;24.00
22787;DHT22;63134;52.020;4.714;2023-05-01T16:43:22;37.00;23.90
22787;DHT22;63134;52.020;4.714;2023-05-01T16:46:09;36.70;24.30
22787;DHT22;63134;52.020;4.714;2023-05-01T16:48:55;36.50;24.50
22787;DHT22;63134;52.020;4.714;2023-05-01T16:51:41;36.30;24.70
22787;DHT22;63134;52.020;4.714;2023-05-01T16:54:26;36.20;24.90
22787;DHT22;63134;52.020;4.714;2023-05-01T16:57:20;36.00;25.10
22787;DHT22;63134;52.020;4.714;2023-05-01T17:00:06;35.60;25.30
22787;DHT22;63134;52.020;4.714;2023-05-01T17:02:55;35.30;25.80
22787;DHT22;63134;52.020;4.714;2023-05-01T17:05:43;35.00;25.90
22787;DHT22;63134;52.020;4.714;2023-05-01T17:08:28;34.60;26.20
22787;DHT22;63134;52.020;4.714;2023-05-01T17:11:13;34.30;26.70
22787;DHT22;63134;52.020;4.714;2023-05-01T17:14:00;34.00;26.90
22787;DHT22;63134;52.020;4.714;2023-05-01T17:16:45;33.90;27.00
22787;DHT22;63134;52.020;4.714;2023-05-01T17:19:34;33.70;27.20
22787;DHT22;63134;52.020;4.714;2023-05-01T17:22:23;33.30;27.40
22787;DHT22;63134;52.020;4.714;2023-05-01T17:25:08;33.10;27.70
22787;DHT22;63134;52.020;4.714;2023-05-01T17:27:54;32.90;27.90
22787;DHT22;63134;52.020;4.714;2023-05-01T17:30:40;32.90;28.10
22787;DHT22;63134;52.020;4.714;2023-05-01T17:33:28;33.00;28.10
22787;DHT22;63134;52.020;4.714;2023-05-01T17:36:14;32.70;28.30
22787;DHT22;63134;52.020;4.714;2023-05-01T17:39:00;32.30;28.40
22787;DHT22;63134;52.020;4.714;2023-05-01T17:41:45;31.60;28.80
22787;DHT22;63134;52.020;4.714;2023-05-01T17:44:31;31.00;29.50
22787;DHT22;63134;52.020;4.714;2023-05-01T17:47:18;30.50;30.10
22787;DHT22;63134;52.020;4.714;2023-05-01T17:50:03;29.80;30.90
22787;DHT22;63134;52.020;4.714;2023-05-01T17:56:15;28.80;32.90
22787;DHT22;63134;52.020;4.714;2023-05-01T17:59:04;28.30;33.50
22787;DHT22;63134;52.020;4.714;2023-05-01T18:01:50;27.80;34.30
22787;DHT22;63134;52.020;4.714;2023-05-01T18:04:36;27.30;35.40
22787;DHT22;63134;52.020;4.714;2023-05-01T18:07:22;26.80;36.20
22787;DHT22;63134;52.020;4.714;2023-05-01T18:10:08;26.40;36.90
22787;DHT22;63134;52.020;4.714;2023-05-01T18:12:56;26.00;37.80
22787;DHT22;63134;52.020;4.714;2023-05-01T18:15:48;25.50;38.60
22787;DHT22;63134;52.020;4.714;2023-05-01T18:18:36;24.90;39.70
22787;DHT22;63134;52.020;4.714;2023-05-01T18:21:21;24.50;40.70